sensor_id;sensor_type;location;lat;lon;timestamp;temperature;humidity
11079;DHT22;5592;49.234;7.268;2022-11-15T00:01:36;11.20;99.90
11079;DHT22;5592;49.234;7.268;2022-11-15T00:04:20;11.20;99.90
11079;DHT22;5592;49.234;7.268;2022-11-15T00:06:48;11.30;99.90
11079;DHT22;5592;49.234;7.268;2022-11-15T00:09:13;11.20;99.90
11079;DHT22;5592;49.234;7.268;2022-11-15T00:11:40;11.20;99.90
11079;DHT22;5592;49.234;7.268;2022-11-15T00:14:05;11.20;99.90
11079;DHT22;5592;49.234;7.268;2022-11-15T00:16:31;11.20;99.90
11079;DHT22;5592;49.234;7.268;2022-11-15T00:18:56;11.30;99.90
11079;DHT22;5592;49.234;7.268;2022-11-15T00:21:23;11.30;99.90
11079;DHT22;5592;49.234;7.268;2022-11-15T00:23:48;11.30;99.90
11079;DHT22;5592;49.234;7.268;2022-11-15T00:26:15;11.30;99.90
11079;DHT22;5592;49.234;7.268;2022-11-15T00:28:41;11.20;99.90
11079;DHT22;5592;49.234;7.268;2022-11-15T00:31:09;11.20;99.90
11079;DHT22;5592;49.234;7.268;2022-11-15T00:33:36;11.20;99.90
11079;DHT22;5592;49.234;7.268;2022-11-15T00:36:11;11.20;99.90
11079;DHT22;5592;49.234;7.268;2022-11-15T00:38:39;11.30;99.90
11079;DHT22;5592;49.234;7.268;2022-11-15T00:41:06;11.30;99.90
11079;DHT22;5592;49.234;7.268;2022-11-15T00:43:32;11.30;99.90
11079;DHT22;5592;49.234;7.268;2022-11-15T00:45:58;11.30;99.90
11079;DHT22;5592;49.234;7.268;2022-11-15T00:48:24;11.30;99.90
11079;DHT22;5592;49.234;7.268;2022-11-15T00:50:50;11.30;99.90
11079;DHT22;5592;49.234;7.268;2022-11-15T00:53:16;11.30;99.90
11079;DHT22;5592;49.234;7.268;2022-11-15T00:55:42;11.30;99.90
11079;DHT22;5592;49.234;7.268;2022-11-15T00:58:08;11.40;99.90
11079;DHT22;5592;49.234;7.268;2022-11-15T01:00:33;11.40;99.90
11079;DHT22;5592;49.234;7.268;2022-11-15T01:03:02;11.40;99.90
11079;DHT22;5592;49.234;7.268;2022-11-15T01:05:28;11.50;99.90
11079;DHT22;5592;49.234;7.268;2022-11-15T01:07:55;11.50;99.90
11079;DHT22;5592;49.234;7.268;2022-11-15T01:10:21;11.50;99.90
11079;DHT22;5592;49.234;7.268;2022-11-15T01:12:48;11.50;99.90
11079;DHT22;5592;49.234;7.268;2022-11-15T01:17:49;11.50;99.90
11079;DHT22;5592;49.234;7.268;2022-11-15T01:22:50;11.60;99.90
11079;DHT22;5592;49.234;7.268;2022-11-15T01:25:15;11.70;99.90
11079;DHT22;5592;49.234;7.268;2022-11-15T01:27:41;11.70;99.90
11079;DHT22;5592;49.234;7.268;2022-11-15T01:30:07;11.70;99.90
11079;DHT22;5592;49.234;7.268;2022-11-15T01:32:33;11.60;99.90
11079;DHT22;5592;49.234;7.268;2022-11-15T01:34:59;11.50;99.90
11079;DHT22;5592;49.234;7.268;2022-11-15T01:37:25;11.50;99.90
11079;DHT22;5592;49.234;7.268;2022-11-15T01:39:50;11.50;99.90
11079;DHT22;5592;49.234;7.268;2022-11-15T01:42:16;11.50;99.90
11079;DHT22;5592;49.234;7.268;2022-11-15T01:44:50;11.50;99.90
11079;DHT22;5592;49.234;7.268;2022-11-15T01:47:40;11.60;99.90
11079;DHT22;5592;49.234;7.268;2022-11-15T01:50:09;11.60;99.90
11079;DHT22;5592;49.234;7.268;2022-11-15T01:52:36;11.50;99.90
11079;DHT22;5592;49.234;7.268;2022-11-15T01:57:38;11.50;99.90
11079;DHT22;5592;49.234;7.268;2022-11-15T02:00:05;11.60;99.90
11079;DHT22;5592;49.234;7.268;2022-11-15T02:02:35;11.50;99.90
11079;DHT22;5592;49.234;7.268;2022-11-15T02:05:01;11.60;99.90
11079;DHT22;5592;49.234;7.268;2022-11-15T02:07:28;11.60;99.90
11079;DHT22;5592;49.234;7.268;2022-11-15T02:09:55;11.60;99.90
11079;DHT22;5592;49.234;7.268;2022-11-15T02:12:23;11.60;99.90
11079;DHT22;5592;49.234;7.268;2022-11-15T02:14:51;11.60;99.90
11079;DHT22;5592;49.234;7.268;2022-11-15T02:17:25;11.50;99.90
11079;DHT22;5592;49.234;7.268;2022-11-15T02:31:24;11.60;99.90
11079;DHT22;5592;49.234;7.268;2022-11-15T02:34:20;11.60;99.90
11079;DHT22;5592;49.234;7.268;2022-11-15T02:36:50;11.60;99.90
11079;DHT22;5592;49.234;7.268;2022-11-15T02:39:36;11.70;99.90
11079;DHT22;5592;49.234;7.268;2022-11-15T02:42:13;11.70;99.90
11079;DHT22;5592;49.234;7.268;2022-11-15T02:45:05;11.70;99.90
11079;DHT22;5592;49.234;7.268;2022-11-15T02:47:35;11.70;99.90
11079;DHT22;5592;49.234;7.268;2022-11-15T02:50:08;11.70;99.90
11079;DHT22;5592;49.234;7.268;2022-11-15T02:52:35;11.70;99.90
11079;DHT22;5592;49.234;7.268;2022-11-15T02:55:01;11.70;99.90
11079;DHT22;5592;49.234;7.268;2022-11-15T03:00:36;11.60;99.90
11079;DHT22;5592;49.234;7.268;2022-11-15T03:03:15;11.60;99.90
11079;DHT22;5592;49.234;7.268;2022-11-15T03:11:11;11.50;99.90
11079;DHT22;5592;49.234;7.268;2022-11-15T03:19:45;11.50;99.90
11079;DHT22;5592;49.234;7.268;2022-11-15T03:22:15;11.60;99.90
11079;DHT22;5592;49.234;7.268;2022-11-15T03:24:44;11.50;99.90
11079;DHT22;5592;49.234;7.268;2022-11-15T03:27:14;11.50;99.90
11079;DHT22;5592;49.234;7.268;2022-11-15T03:29:46;11.50;99.90
11079;DHT22;5592;49.234;7.268;2022-11-15T03:32:18;11.50;99.90
11079;DHT22;5592;49.234;7.268;2022-11-15T03:34:49;11.50;99.90
11079;DHT22;5592;49.234;7.268;2022-11-15T03:37:17;11.50;99.90
11079;DHT22;5592;49.234;7.268;2022-11-15T03:39:46;11.50;99.90
11079;DHT22;5592;49.234;7.268;2022-11-15T03:42:28;11.50;99.90
11079;DHT22;5592;49.234;7.268;2022-11-15T03:45:15;11.50;99.90
11079;DHT22;5592;49.234;7.268;2022-11-15T03:47:59;11.40;99.90
11079;DHT22;5592;49.234;7.268;2022-11-15T03:50:27;11.40;99.90
11079;DHT22;5592;49.234;7.268;2022-11-15T03:52:54;11.40;99.90
11079;DHT22;5592;49.234;7.268;2022-11-15T03:55:21;11.30;99.90
11079;DHT22;5592;49.234;7.268;2022-11-15T03:57:50;11.30;99.90
11079;DHT22;5592;49.234;7.268;2022-11-15T04:00:16;11.20;99.90
11079;DHT22;5592;49.234;7.268;2022-11-15T04:02:42;11.20;99.90
11079;DHT22;5592;49.234;7.268;2022-11-15T04:05:08;11.10;99.90
11079;DHT22;5592;49.234;7.268;2022-11-15T04:07:33;10.90;99.90
11079;DHT22;5592;49.234;7.268;2022-11-15T04:09:59;10.80;99.90
11079;DHT22;5592;49.234;7.268;2022-11-15T04:12:37;10.70;99.90
11079;DHT22;5592;49.234;7.268;2022-11-15T04:15:11;10.60;99.90
11079;DHT22;5592;49.234;7.268;2022-11-15T04:20:20;10.50;99.90
11079;DHT22;5592;49.234;7.268;2022-11-15T04:23:30;10.50;99.90
11079;DHT22;5592;49.234;7.268;2022-11-15T04:26:16;10.60;99.90
11079;DHT22;5592;49.234;7.268;2022-11-15T04:28:43;10.60;99.90
11079;DHT22;5592;49.234;7.268;2022-11-15T04:31:28;10.50;99.90
11079;DHT22;5592;49.234;7.268;2022-11-15T04:33:54;10.30;99.90
11079;DHT22;5592;49.234;7.268;2022-11-15T04:36:20;10.20;99.90
11079;DHT22;5592;49.234;7.268;2022-11-15T04:39:04;10.20;99.90
11079;DHT22;5592;49.234;7.268;2022-11-15T04:41:30;10.30;99.90
11079;DHT22;5592;49.234;7.268;2022-11-15T04:43:56;10.30;99.90
11079;DHT22;5592;49.234;7.268;2022-11-15T04:46:22;10.20;99.90
11079;DHT22;5592;49.234;7.268;2022-11-15T04:48:49;10.00;99.90
11079;DHT22;5592;49.234;7.268;2022-11-15T04:51:14;9.80;99.90
11079;DHT22;5592;49.234;7.268;2022-11-15T04:53:40;9.70;99.90
11079;DHT22;5592;49.234;7.268;2022-11-15T04:56:06;9.70;99.90
11079;DHT22;5592;49.234;7.268;2022-11-15T04:58:32;9.70;99.90
11079;DHT22;5592;49.234;7.268;2022-11-15T05:00:57;9.60;99.90
11079;DHT22;5592;49.234;7.268;2022-11-15T05:03:23;9.70;99.90
11079;DHT22;5592;49.234;7.268;2022-11-15T05:06:07;9.60;99.90
11079;DHT22;5592;49.234;7.268;2022-11-15T05:08:32;9.70;99.90
11079;DHT22;5592;49.234;7.268;2022-11-15T05:10:58;9.70;99.90
11079;DHT22;5592;49.234;7.268;2022-11-15T05:13:24;9.70;99.90
11079;DHT22;5592;49.234;7.268;2022-11-15T05:15:49;9.70;99.90
11079;DHT22;5592;49.234;7.268;2022-11-15T05:18:15;9.70;99.90
11079;DHT22;5592;49.234;7.268;2022-11-15T05:20:41;9.80;99.90
11079;DHT22;5592;49.234;7.268;2022-11-15T05:23:06;9.90;99.90
11079;DHT22;5592;49.234;7.268;2022-11-15T05:25:32;9.90;99.90
11079;DHT22;5592;49.234;7.268;2022-11-15T05:28:01;9.90;99.90
11079;DHT22;5592;49.234;7.268;2022-11-15T05:30:26;9.90;99.90
11079;DHT22;5592;49.234;7.268;2022-11-15T05:32:53;9.90;99.90
11079;DHT22;5592;49.234;7.268;2022-11-15T05:35:25;9.90;99.90
11079;DHT22;5592;49.234;7.268;2022-11-15T05:37:53;9.90;99.90
11079;DHT22;5592;49.234;7.268;2022-11-15T05:40:18;9.90;99.90
11079;DHT22;5592;49.234;7.268;2022-11-15T05:42:44;9.90;99.90
11079;DHT22;5592;49.234;7.268;2022-11-15T05:45:11;9.90;99.90
11079;DHT22;5592;49.234;7.268;2022-11-15T05:47:37;10.00;99.90
11079;DHT22;5592;49.234;7.268;2022-11-15T05:50:04;10.00;99.90
11079;DHT22;5592;49.234;7.268;2022-11-15T05:52:31;10.00;99.90
11079;DHT22;5592;49.234;7.268;2022-11-15T05:54:59;9.90;99.90
11079;DHT22;5592;49.234;7.268;2022-11-15T05:57:25;9.90;99.90
11079;DHT22;5592;49.234;7.268;2022-11-15T05:59:51;9.90;99.90
11079;DHT22;5592;49.234;7.268;2022-11-15T06:02:17;9.90;99.90
11079;DHT22;5592;49.234;7.268;2022-11-15T06:04:42;9.90;99.90
11079;DHT22;5592;49.234;7.268;2022-11-15T06:07:08;9.90;99.90
11079;DHT22;5592;49.234;7.268;2022-11-15T06:09:33;9.90;99.90
11079;DHT22;5592;49.234;7.268;2022-11-15T06:11:59;9.90;99.90
11079;DHT22;5592;49.234;7.268;2022-11-15T06:14:24;9.90;99.90
11079;DHT22;5592;49.234;7.268;2022-11-15T06:16:50;9.90;99.90
11079;DHT22;5592;49.234;7.268;2022-11-15T06:19:16;9.90;99.90
11079;DHT22;5592;49.234;7.268;2022-11-15T06:21:42;9.80;99.90
11079;DHT22;5592;49.234;7.268;2022-11-15T06:24:07;9.80;99.90
11079;DHT22;5592;49.234;7.268;2022-11-15T06:26:33;9.70;99.90
11079;DHT22;5592;49.234;7.268;2022-11-15T06:29:03;9.70;99.90
11079;DHT22;5592;49.234;7.268;2022-11-15T06:31:30;9.70;99.90
11079;DHT22;5592;49.234;7.268;2022-11-15T06:33:55;9.80;99.90
11079;DHT22;5592;49.234;7.268;2022-11-15T06:36:21;9.80;99.90
11079;DHT22;5592;49.234;7.268;2022-11-15T06:38:46;9.80;99.90
11079;DHT22;5592;49.234;7.268;2022-11-15T06:41:13;9.90;99.90
11079;DHT22;5592;49.234;7.268;2022-11-15T06:43:40;9.80;99.90
11079;DHT22;5592;49.234;7.268;2022-11-15T06:46:06;9.80;99.90
11079;DHT22;5592;49.234;7.268;2022-11-15T06:48:33;9.80;99.90
11079;DHT22;5592;49.234;7.268;2022-11-15T06:51:00;9.80;99.90
11079;DHT22;5592;49.234;7.268;2022-11-15T06:53:27;9.80;99.90
11079;DHT22;5592;49.234;7.268;2022-11-15T06:55:53;9.80;99.90
11079;DHT22;5592;49.234;7.268;2022-11-15T06:58:21;9.90;99.90
11079;DHT22;5592;49.234;7.268;2022-11-15T07:00:46;9.90;99.90
11079;DHT22;5592;49.234;7.268;2022-11-15T07:03:15;9.80;99.90
11079;DHT22;5592;49.234;7.268;2022-11-15T07:05:40;9.80;99.90
11079;DHT22;5592;49.234;7.268;2022-11-15T07:08:06;9.80;99.90
11079;DHT22;5592;49.234;7.268;2022-11-15T07:10:31;9.80;99.90
11079;DHT22;5592;49.234;7.268;2022-11-15T07:12:57;9.80;99.90
11079;DHT22;5592;49.234;7.268;2022-11-15T07:15:24;9.70;99.90
11079;DHT22;5592;49.234;7.268;2022-11-15T07:17:50;9.70;99.90
11079;DHT22;5592;49.234;7.268;2022-11-15T07:20:16;9.70;99.90
11079;DHT22;5592;49.234;7.268;2022-11-15T07:22:43;9.70;99.90
11079;DHT22;5592;49.234;7.268;2022-11-15T07:25:10;9.70;99.90
11079;DHT22;5592;49.234;7.268;2022-11-15T07:27:36;9.70;99.90
11079;DHT22;5592;49.234;7.268;2022-11-15T07:30:03;9.70;99.90
11079;DHT22;5592;49.234;7.268;2022-11-15T07:32:29;9.80;99.90
11079;DHT22;5592;49.234;7.268;2022-11-15T07:34:56;9.80;99.90
11079;DHT22;5592;49.234;7.268;2022-11-15T07:37:21;9.80;99.90
11079;DHT22;5592;49.234;7.268;2022-11-15T07:39:48;9.80;99.90
11079;DHT22;5592;49.234;7.268;2022-11-15T07:42:13;9.80;99.90
11079;DHT22;5592;49.234;7.268;2022-11-15T07:44:57;9.80;99.90
11079;DHT22;5592;49.234;7.268;2022-11-15T07:47:23;9.90;99.90
11079;DHT22;5592;49.234;7.268;2022-11-15T07:49:48;9.90;99.90
11079;DHT22;5592;49.234;7.268;2022-11-15T07:52:15;9.90;99.90
11079;DHT22;5592;49.234;7.268;2022-11-15T07:54:41;9.90;99.90
11079;DHT22;5592;49.234;7.268;2022-11-15T07:57:09;9.90;99.90
11079;DHT22;5592;49.234;7.268;2022-11-15T07:59:35;9.90;99.90
11079;DHT22;5592;49.234;7.268;2022-11-15T08:02:02;10.00;99.90
11079;DHT22;5592;49.234;7.268;2022-11-15T08:04:27;10.00;99.90
11079;DHT22;5592;49.234;7.268;2022-11-15T08:06:53;10.00;99.90
11079;DHT22;5592;49.234;7.268;2022-11-15T08:09:18;10.00;99.90
11079;DHT22;5592;49.234;7.268;2022-11-15T08:11:47;10.00;99.90
11079;DHT22;5592;49.234;7.268;2022-11-15T08:14:12;10.10;99.90
11079;DHT22;5592;49.234;7.268;2022-11-15T08:16:38;10.10;99.90
11079;DHT22;5592;49.234;7.268;2022-11-15T08:19:03;10.10;99.90
11079;DHT22;5592;49.234;7.268;2022-11-15T08:21:29;10.10;99.90
11079;DHT22;5592;49.234;7.268;2022-11-15T08:23:55;10.20;99.90
11079;DHT22;5592;49.234;7.268;2022-11-15T08:26:20;10.20;99.90
11079;DHT22;5592;49.234;7.268;2022-11-15T08:28:46;10.30;99.90
11079;DHT22;5592;49.234;7.268;2022-11-15T08:31:14;10.40;99.90
11079;DHT22;5592;49.234;7.268;2022-11-15T08:33:42;10.40;99.90
11079;DHT22;5592;49.234;7.268;2022-11-15T08:36:13;10.50;99.90
11079;DHT22;5592;49.234;7.268;2022-11-15T08:38:39;10.60;99.90
11079;DHT22;5592;49.234;7.268;2022-11-15T08:41:12;10.70;99.90
11079;DHT22;5592;49.234;7.268;2022-11-15T08:43:39;10.80;99.90
11079;DHT22;5592;49.234;7.268;2022-11-15T08:46:04;10.80;99.90
11079;DHT22;5592;49.234;7.268;2022-11-15T08:48:30;10.90;99.90
11079;DHT22;5592;49.234;7.268;2022-11-15T08:50:56;11.00;99.90
11079;DHT22;5592;49.234;7.268;2022-11-15T08:53:22;11.00;99.90
11079;DHT22;5592;49.234;7.268;2022-11-15T08:55:47;11.10;99.90
11079;DHT22;5592;49.234;7.268;2022-11-15T08:58:13;11.20;99.90
11079;DHT22;5592;49.234;7.268;2022-11-15T09:00:39;11.30;99.90
11079;DHT22;5592;49.234;7.268;2022-11-15T09:03:05;11.50;99.90
11079;DHT22;5592;49.234;7.268;2022-11-15T09:05:31;11.50;99.90
11079;DHT22;5592;49.234;7.268;2022-11-15T09:07:57;11.60;99.90
11079;DHT22;5592;49.234;7.268;2022-11-15T09:10:22;11.70;99.90
11079;DHT22;5592;49.234;7.268;2022-11-15T09:12:48;11.80;99.90
11079;DHT22;5592;49.234;7.268;2022-11-15T09:15:15;11.80;99.90
11079;DHT22;5592;49.234;7.268;2022-11-15T09:17:41;12.00;99.90
11079;DHT22;5592;49.234;7.268;2022-11-15T09:20:08;12.10;99.90
11079;DHT22;5592;49.234;7.268;2022-11-15T09:22:34;12.30;99.90
11079;DHT22;5592;49.234;7.268;2022-11-15T09:25:02;12.40;99.90
11079;DHT22;5592;49.234;7.268;2022-11-15T09:27:29;12.50;99.90
11079;DHT22;5592;49.234;7.268;2022-11-15T09:29:56;12.60;99.90
11079;DHT22;5592;49.234;7.268;2022-11-15T09:32:22;12.60;99.90
11079;DHT22;5592;49.234;7.268;2022-11-15T09:34:50;12.60;99.90
11079;DHT22;5592;49.234;7.268;2022-11-15T09:37:16;12.60;99.90
11079;DHT22;5592;49.234;7.268;2022-11-15T09:39:43;12.60;99.90
11079;DHT22;5592;49.234;7.268;2022-11-15T09:50:21;13.00;99.90
11079;DHT22;5592;49.234;7.268;2022-11-15T09:52:52;13.20;99.90
11079;DHT22;5592;49.234;7.268;2022-11-15T09:55:18;13.30;99.90
11079;DHT22;5592;49.234;7.268;2022-11-15T09:57:59;13.40;99.90
11079;DHT22;5592;49.234;7.268;2022-11-15T10:00:34;13.40;99.90
11079;DHT22;5592;49.234;7.268;2022-11-15T10:05:43;13.80;99.90
11079;DHT22;5592;49.234;7.268;2022-11-15T10:08:40;14.10;99.90
11079;DHT22;5592;49.234;7.268;2022-11-15T10:11:19;14.20;99.90
11079;DHT22;5592;49.234;7.268;2022-11-15T10:13:47;14.30;99.90
11079;DHT22;5592;49.234;7.268;2022-11-15T10:22:33;14.70;99.90
11079;DHT22;5592;49.234;7.268;2022-11-15T10:27:29;14.80;99.90
11079;DHT22;5592;49.234;7.268;2022-11-15T10:29:55;15.00;99.90
11079;DHT22;5592;49.234;7.268;2022-11-15T10:32:23;14.90;99.90
11079;DHT22;5592;49.234;7.268;2022-11-15T10:34:49;15.00;99.90
11079;DHT22;5592;49.234;7.268;2022-11-15T10:37:30;15.20;99.90
11079;DHT22;5592;49.234;7.268;2022-11-15T10:40:20;15.30;99.90
11079;DHT22;5592;49.234;7.268;2022-11-15T10:42:47;15.50;99.90
11079;DHT22;5592;49.234;7.268;2022-11-15T10:45:29;15.70;99.90
11079;DHT22;5592;49.234;7.268;2022-11-15T10:48:22;16.00;99.90
11079;DHT22;5592;49.234;7.268;2022-11-15T10:50:49;16.40;99.90
11079;DHT22;5592;49.234;7.268;2022-11-15T10:53:37;16.60;99.90
11079;DHT22;5592;49.234;7.268;2022-11-15T10:56:07;16.70;99.90
11079;DHT22;5592;49.234;7.268;2022-11-15T10:58:41;17.10;99.90
11079;DHT22;5592;49.234;7.268;2022-11-15T11:01:23;17.50;99.90
11079;DHT22;5592;49.234;7.268;2022-11-15T11:04:03;17.30;99.90
11079;DHT22;5592;49.234;7.268;2022-11-15T11:06:30;17.20;99.90
11079;DHT22;5592;49.234;7.268;2022-11-15T11:08:56;16.90;99.90
11079;DHT22;5592;49.234;7.268;2022-11-15T11:11:23;16.60;99.90
11079;DHT22;5592;49.234;7.268;2022-11-15T11:13:51;16.50;99.90
11079;DHT22;5592;49.234;7.268;2022-11-15T11:16:49;16.50;99.90
11079;DHT22;5592;49.234;7.268;2022-11-15T11:33:39;15.90;99.90
11079;DHT22;5592;49.234;7.268;2022-11-15T11:47:36;15.80;99.90
11079;DHT22;5592;49.234;7.268;2022-11-15T11:50:25;15.90;99.90
11079;DHT22;5592;49.234;7.268;2022-11-15T11:55:43;16.30;99.90
11079;DHT22;5592;49.234;7.268;2022-11-15T11:58:42;16.20;99.90
11079;DHT22;5592;49.234;7.268;2022-11-15T12:01:25;16.20;99.90
11079;DHT22;5592;49.234;7.268;2022-11-15T12:07:21;16.20;99.90
11079;DHT22;5592;49.234;7.268;2022-11-15T12:09:59;15.90;99.90
11079;DHT22;5592;49.234;7.268;2022-11-15T12:12:47;15.80;99.90
11079;DHT22;5592;49.234;7.268;2022-11-15T12:15:31;15.90;99.90
11079;DHT22;5592;49.234;7.268;2022-11-15T12:18:04;16.10;99.90
11079;DHT22;5592;49.234;7.268;2022-11-15T12:20:34;16.20;99.90
11079;DHT22;5592;49.234;7.268;2022-11-15T12:23:20;16.30;99.90
11079;DHT22;5592;49.234;7.268;2022-11-15T12:26:06;16.10;99.90
11079;DHT22;5592;49.234;7.268;2022-11-15T12:31:44;16.00;99.90
11079;DHT22;5592;49.234;7.268;2022-11-15T12:36:50;15.40;99.90
11079;DHT22;5592;49.234;7.268;2022-11-15T12:39:18;15.30;99.90
11079;DHT22;5592;49.234;7.268;2022-11-15T12:47:00;15.40;99.90
11079;DHT22;5592;49.234;7.268;2022-11-15T12:59:54;14.40;99.90
11079;DHT22;5592;49.234;7.268;2022-11-15T13:02:26;14.30;99.90
11079;DHT22;5592;49.234;7.268;2022-11-15T13:04:55;14.20;99.90
11079;DHT22;5592;49.234;7.268;2022-11-15T13:17:51;14.30;99.90
11079;DHT22;5592;49.234;7.268;2022-11-15T13:20:23;14.30;99.90
11079;DHT22;5592;49.234;7.268;2022-11-15T13:25:21;14.50;99.90
11079;DHT22;5592;49.234;7.268;2022-11-15T13:27:50;14.40;99.90
11079;DHT22;5592;49.234;7.268;2022-11-15T13:30:22;14.50;99.90
11079;DHT22;5592;49.234;7.268;2022-11-15T13:32:49;14.60;99.90
11079;DHT22;5592;49.234;7.268;2022-11-15T13:35:38;14.60;99.90
11079;DHT22;5592;49.234;7.268;2022-11-15T13:38:04;14.70;99.90
11079;DHT22;5592;49.234;7.268;2022-11-15T13:40:39;14.70;99.90
11079;DHT22;5592;49.234;7.268;2022-11-15T13:46:16;14.70;99.90
11079;DHT22;5592;49.234;7.268;2022-11-15T13:48:44;14.50;99.90
11079;DHT22;5592;49.234;7.268;2022-11-15T13:51:22;14.50;99.90
11079;DHT22;5592;49.234;7.268;2022-11-15T13:54:03;14.50;99.90
11079;DHT22;5592;49.234;7.268;2022-11-15T13:56:33;14.60;99.90
11079;DHT22;5592;49.234;7.268;2022-11-15T13:59:00;14.60;99.90
11079;DHT22;5592;49.234;7.268;2022-11-15T14:01:28;14.50;99.90
11079;DHT22;5592;49.234;7.268;2022-11-15T14:03:58;14.40;99.90
11079;DHT22;5592;49.234;7.268;2022-11-15T14:06:28;14.40;99.90
11079;DHT22;5592;49.234;7.268;2022-11-15T14:09:15;14.30;99.90
11079;DHT22;5592;49.234;7.268;2022-11-15T14:11:56;14.30;99.90
11079;DHT22;5592;49.234;7.268;2022-11-15T14:14:24;14.20;99.90
11079;DHT22;5592;49.234;7.268;2022-11-15T14:16:52;14.10;99.90
11079;DHT22;5592;49.234;7.268;2022-11-15T14:22:13;14.10;99.90
11079;DHT22;5592;49.234;7.268;2022-11-15T14:24:40;14.00;99.90
11079;DHT22;5592;49.234;7.268;2022-11-15T14:27:27;14.00;99.90
11079;DHT22;5592;49.234;7.268;2022-11-15T14:29:54;14.00;99.90
11079;DHT22;5592;49.234;7.268;2022-11-15T14:32:24;13.90;99.90
11079;DHT22;5592;49.234;7.268;2022-11-15T14:35:01;13.90;99.90
11079;DHT22;5592;49.234;7.268;2022-11-15T14:37:32;13.90;99.90
11079;DHT22;5592;49.234;7.268;2022-11-15T14:40:04;13.90;99.90
11079;DHT22;5592;49.234;7.268;2022-11-15T14:42:30;14.00;99.90
11079;DHT22;5592;49.234;7.268;2022-11-15T14:44:55;14.10;99.90
11079;DHT22;5592;49.234;7.268;2022-11-15T14:47:21;14.00;99.90
11079;DHT22;5592;49.234;7.268;2022-11-15T14:49:47;13.90;99.90
11079;DHT22;5592;49.234;7.268;2022-11-15T14:52:31;13.80;99.90
11079;DHT22;5592;49.234;7.268;2022-11-15T14:55:02;13.90;99.90
11079;DHT22;5592;49.234;7.268;2022-11-15T14:57:29;13.80;99.90
11079;DHT22;5592;49.234;7.268;2022-11-15T14:59:55;13.80;99.90
11079;DHT22;5592;49.234;7.268;2022-11-15T15:02:24;13.80;99.90
11079;DHT22;5592;49.234;7.268;2022-11-15T15:04:50;13.70;99.90
11079;DHT22;5592;49.234;7.268;2022-11-15T15:07:17;13.70;99.90
11079;DHT22;5592;49.234;7.268;2022-11-15T15:09:43;13.70;99.90
11079;DHT22;5592;49.234;7.268;2022-11-15T15:12:21;13.70;99.90
11079;DHT22;5592;49.234;7.268;2022-11-15T15:14:48;13.60;99.90
11079;DHT22;5592;49.234;7.268;2022-11-15T15:17:15;13.60;99.90
11079;DHT22;5592;49.234;7.268;2022-11-15T15:19:41;13.50;99.90
11079;DHT22;5592;49.234;7.268;2022-11-15T15:22:15;13.40;99.90
11079;DHT22;5592;49.234;7.268;2022-11-15T15:24:42;13.30;99.90
11079;DHT22;5592;49.234;7.268;2022-11-15T15:27:08;13.30;99.90
11079;DHT22;5592;49.234;7.268;2022-11-15T15:29:33;13.20;99.90
11079;DHT22;5592;49.234;7.268;2022-11-15T15:31:59;13.20;99.90
11079;DHT22;5592;49.234;7.268;2022-11-15T15:34:24;13.10;99.90
11079;DHT22;5592;49.234;7.268;2022-11-15T15:39:38;13.00;99.90
11079;DHT22;5592;49.234;7.268;2022-11-15T15:42:03;12.90;99.90
11079;DHT22;5592;49.234;7.268;2022-11-15T15:44:29;12.90;99.90
11079;DHT22;5592;49.234;7.268;2022-11-15T15:46:55;12.90;99.90
11079;DHT22;5592;49.234;7.268;2022-11-15T15:49:23;12.80;99.90
11079;DHT22;5592;49.234;7.268;2022-11-15T15:51:48;12.80;99.90
11079;DHT22;5592;49.234;7.268;2022-11-15T15:54:14;12.80;99.90
11079;DHT22;5592;49.234;7.268;2022-11-15T15:56:39;12.80;99.90
11079;DHT22;5592;49.234;7.268;2022-11-15T15:59:05;12.70;99.90
11079;DHT22;5592;49.234;7.268;2022-11-15T16:01:31;12.60;99.90
11079;DHT22;5592;49.234;7.268;2022-11-15T16:03:56;12.60;99.90
11079;DHT22;5592;49.234;7.268;2022-11-15T16:06:35;12.60;99.90
11079;DHT22;5592;49.234;7.268;2022-11-15T16:09:02;12.50;99.90
11079;DHT22;5592;49.234;7.268;2022-11-15T16:11:28;12.50;99.90
11079;DHT22;5592;49.234;7.268;2022-11-15T16:13:53;12.40;99.90
11079;DHT22;5592;49.234;7.268;2022-11-15T16:16:20;12.40;99.90
11079;DHT22;5592;49.234;7.268;2022-11-15T16:18:46;12.40;99.90
11079;DHT22;5592;49.234;7.268;2022-11-15T16:21:12;12.30;99.90
11079;DHT22;5592;49.234;7.268;2022-11-15T16:23:37;12.20;99.90
11079;DHT22;5592;49.234;7.268;2022-11-15T16:26:26;12.20;99.90
11079;DHT22;5592;49.234;7.268;2022-11-15T16:28:52;12.10;99.90
11079;DHT22;5592;49.234;7.268;2022-11-15T16:31:18;12.10;99.90
11079;DHT22;5592;49.234;7.268;2022-11-15T16:33:46;12.10;99.90
11079;DHT22;5592;49.234;7.268;2022-11-15T16:36:25;12.10;99.90
11079;DHT22;5592;49.234;7.268;2022-11-15T16:38:51;12.10;99.90
11079;DHT22;5592;49.234;7.268;2022-11-15T16:41:18;12.20;99.90
11079;DHT22;5592;49.234;7.268;2022-11-15T16:43:47;12.20;99.90
11079;DHT22;5592;49.234;7.268;2022-11-15T16:46:26;12.20;99.90
11079;DHT22;5592;49.234;7.268;2022-11-15T16:48:52;12.20;99.90
11079;DHT22;5592;49.234;7.268;2022-11-15T16:51:18;12.20;99.90
11079;DHT22;5592;49.234;7.268;2022-11-15T16:53:44;12.20;99.90
11079;DHT22;5592;49.234;7.268;2022-11-15T16:56:27;12.20;99.90
11079;DHT22;5592;49.234;7.268;2022-11-15T16:58:54;12.20;99.90
11079;DHT22;5592;49.234;7.268;2022-11-15T17:01:43;12.20;99.90
11079;DHT22;5592;49.234;7.268;2022-11-15T17:04:17;12.20;99.90
11079;DHT22;5592;49.234;7.268;2022-11-15T17:06:46;12.20;99.90
11079;DHT22;5592;49.234;7.268;2022-11-15T17:09:17;12.20;99.90
11079;DHT22;5592;49.234;7.268;2022-11-15T17:11:43;12.10;99.90
11079;DHT22;5592;49.234;7.268;2022-11-15T17:14:10;12.10;99.90
11079;DHT22;5592;49.234;7.268;2022-11-15T17:16:37;12.00;99.90
11079;DHT22;5592;49.234;7.268;2022-11-15T17:19:27;12.00;99.90
11079;DHT22;5592;49.234;7.268;2022-11-15T17:21:52;11.90;99.90
11079;DHT22;5592;49.234;7.268;2022-11-15T17:24:18;11.90;99.90
11079;DHT22;5592;49.234;7.268;2022-11-15T17:26:45;11.90;99.90
11079;DHT22;5592;49.234;7.268;2022-11-15T17:29:11;12.00;99.90
11079;DHT22;5592;49.234;7.268;2022-11-15T17:31:37;11.90;99.90
11079;DHT22;5592;49.234;7.268;2022-11-15T17:34:04;11.90;99.90
11079;DHT22;5592;49.234;7.268;2022-11-15T17:36:29;11.90;99.90
11079;DHT22;5592;49.234;7.268;2022-11-15T17:38:55;11.90;99.90
11079;DHT22;5592;49.234;7.268;2022-11-15T17:41:21;11.80;99.90
11079;DHT22;5592;49.234;7.268;2022-11-15T17:43:47;11.80;99.90
11079;DHT22;5592;49.234;7.268;2022-11-15T17:46:16;11.80;99.90
11079;DHT22;5592;49.234;7.268;2022-11-15T17:48:42;11.70;99.90
11079;DHT22;5592;49.234;7.268;2022-11-15T17:51:11;11.60;99.90
11079;DHT22;5592;49.234;7.268;2022-11-15T17:53:40;11.60;99.90
11079;DHT22;5592;49.234;7.268;2022-11-15T17:56:08;11.50;99.90
11079;DHT22;5592;49.234;7.268;2022-11-15T17:58:34;11.50;99.90
11079;DHT22;5592;49.234;7.268;2022-11-15T18:01:11;11.40;99.90
11079;DHT22;5592;49.234;7.268;2022-11-15T18:03:39;11.40;99.90
11079;DHT22;5592;49.234;7.268;2022-11-15T18:06:06;11.40;99.90
11079;DHT22;5592;49.234;7.268;2022-11-15T18:08:34;11.40;99.90
11079;DHT22;5592;49.234;7.268;2022-11-15T18:11:07;11.30;99.90
11079;DHT22;5592;49.234;7.268;2022-11-15T18:13:35;11.30;99.90
11079;DHT22;5592;49.234;7.268;2022-11-15T18:16:03;11.30;99.90